sensor_id;sensor_type;location;lat;lon;timestamp;pressure;altitude;pressure_sealevel;temperature;humidity
64792;BME280;51226;47.504;19.074;2023-03-14T00:00:59;99519.94;;;9.51;45.88
64792;BME280;51226;47.504;19.074;2023-03-14T00:04:04;99508.56;;;9.48;44.93
64792;BME280;51226;47.504;19.074;2023-03-14T00:07:07;99502.72;;;9.56;44.42
64792;BME280;51226;47.504;19.074;2023-03-14T00:10:12;99501.84;;;9.56;44.53
64792;BME280;51226;47.504;19.074;2023-03-14T00:13:18;99490.37;;;9.49;46.03
64792;BME280;51226;47.504;19.074;2023-03-14T00:16:25;99491.16;;;9.46;46.50
64792;BME280;51226;47.504;19.074;2023-03-14T00:19:28;99487.62;;;9.44;45.92
64792;BME280;51226;47.504;19.074;2023-03-14T00:22:31;99489.28;;;9.41;45.71
64792;BME280;51226;47.504;19.074;2023-03-14T00:25:34;99466.78;;;9.43;46.37
64792;BME280;51226;47.504;19.074;2023-03-14T00:28:38;99473.75;;;9.44;46.46
64792;BME280;51226;47.504;19.074;2023-03-14T00:31:41;99464.22;;;9.44;45.88
64792;BME280;51226;47.504;19.074;2023-03-14T00:34:44;99458.19;;;9.45;45.88
64792;BME280;51226;47.504;19.074;2023-03-14T00:37:47;99448.66;;;9.46;46.31
64792;BME280;51226;47.504;19.074;2023-03-14T00:40:53;99439.91;;;9.44;46.64
64792;BME280;51226;47.504;19.074;2023-03-14T00:43:56;99446.81;;;9.43;46.70
64792;BME280;51226;47.504;19.074;2023-03-14T00:46:59;99439.88;;;9.42;47.10
64792;BME280;51226;47.504;19.074;2023-03-14T00:50:02;99449.00;;;9.60;45.08
64792;BME280;51226;47.504;19.074;2023-03-14T00:53:05;99439.06;;;9.45;46.60
64792;BME280;51226;47.504;19.074;2023-03-14T00:56:11;99437.47;;;9.50;45.63
64792;BME280;51226;47.504;19.074;2023-03-14T00:59:15;99432.59;;;9.62;45.41
64792;BME280;51226;47.504;19.074;2023-03-14T01:02:20;99434.81;;;9.49;45.84
64792;BME280;51226;47.504;19.074;2023-03-14T01:05:23;99431.94;;;9.38;47.21
64792;BME280;51226;47.504;19.074;2023-03-14T01:08:26;99421.75;;;9.45;46.12
64792;BME280;51226;47.504;19.074;2023-03-14T01:11:34;99403.19;;;9.33;46.60
64792;BME280;51226;47.504;19.074;2023-03-14T01:14:37;99411.84;;;9.34;47.39
64792;BME280;51226;47.504;19.074;2023-03-14T01:17:40;99424.88;;;9.66;45.22
64792;BME280;51226;47.504;19.074;2023-03-14T01:20:43;99419.88;;;9.41;45.74
64792;BME280;51226;47.504;19.074;2023-03-14T01:23:47;99410.94;;;9.32;46.87
64792;BME280;51226;47.504;19.074;2023-03-14T01:26:50;99393.63;;;9.32;46.52
64792;BME280;51226;47.504;19.074;2023-03-14T01:29:53;99395.19;;;9.27;46.54
64792;BME280;51226;47.504;19.074;2023-03-14T01:32:56;99387.44;;;9.28;46.44
64792;BME280;51226;47.504;19.074;2023-03-14T01:35:59;99373.56;;;9.28;46.45
64792;BME280;51226;47.504;19.074;2023-03-14T01:39:05;99360.28;;;9.17;46.55
64792;BME280;51226;47.504;19.074;2023-03-14T01:42:09;99363.66;;;9.15;47.13
64792;BME280;51226;47.504;19.074;2023-03-14T01:49:05;99363.06;;;9.25;47.04
64792;BME280;51226;47.504;19.074;2023-03-14T01:52:10;99346.81;;;9.34;45.88
64792;BME280;51226;47.504;19.074;2023-03-14T01:55:21;99337.78;;;9.19;46.54
64792;BME280;51226;47.504;19.074;2023-03-14T01:58:27;99333.97;;;9.06;47.69
64792;BME280;51226;47.504;19.074;2023-03-14T02:01:31;99330.50;;;9.06;47.45
64792;BME280;51226;47.504;19.074;2023-03-14T02:04:34;99332.22;;;9.05;47.64
64792;BME280;51226;47.504;19.074;2023-03-14T02:07:50;99325.97;;;8.99;47.33
64792;BME280;51226;47.504;19.074;2023-03-14T02:10:54;99321.56;;;8.96;48.05
64792;BME280;51226;47.504;19.074;2023-03-14T02:13:59;99318.03;;;8.94;48.01
64792;BME280;51226;47.504;19.074;2023-03-14T02:17:04;99311.84;;;8.89;47.95
64792;BME280;51226;47.504;19.074;2023-03-14T02:23:15;99289.34;;;8.91;48.95
64792;BME280;51226;47.504;19.074;2023-03-14T02:26:28;99298.88;;;8.90;48.98
64792;BME280;51226;47.504;19.074;2023-03-14T02:29:37;99280.81;;;8.97;48.09
64792;BME280;51226;47.504;19.074;2023-03-14T02:32:45;99267.78;;;8.95;48.43
64792;BME280;51226;47.504;19.074;2023-03-14T02:35:53;99270.25;;;8.89;49.10
64792;BME280;51226;47.504;19.074;2023-03-14T02:39:09;99262.75;;;9.01;48.05
64792;BME280;51226;47.504;19.074;2023-03-14T02:42:15;99263.34;;;8.91;48.77
64792;BME280;51226;47.504;19.074;2023-03-14T02:48:32;99260.78;;;8.93;48.53
64792;BME280;51226;47.504;19.074;2023-03-14T02:51:37;99248.44;;;8.84;49.25
64792;BME280;51226;47.504;19.074;2023-03-14T02:54:40;99241.22;;;8.74;49.62
64792;BME280;51226;47.504;19.074;2023-03-14T02:57:43;99247.31;;;8.74;49.78
64792;BME280;51226;47.504;19.074;2023-03-14T03:00:47;99252.69;;;8.82;49.44
64792;BME280;51226;47.504;19.074;2023-03-14T03:03:52;99233.63;;;8.81;49.80
64792;BME280;51226;47.504;19.074;2023-03-14T03:06:55;99221.53;;;8.83;49.98
64792;BME280;51226;47.504;19.074;2023-03-14T03:09:58;99225.94;;;8.86;50.46
64792;BME280;51226;47.504;19.074;2023-03-14T03:13:01;99226.34;;;9.01;49.45
64792;BME280;51226;47.504;19.074;2023-03-14T03:16:04;99225.53;;;9.04;50.01
64792;BME280;51226;47.504;19.074;2023-03-14T03:19:09;99223.56;;;8.95;50.39
64792;BME280;51226;47.504;19.074;2023-03-14T03:22:12;99223.69;;;9.00;50.26
64792;BME280;51226;47.504;19.074;2023-03-14T03:25:16;99217.00;;;9.09;49.61
64792;BME280;51226;47.504;19.074;2023-03-14T03:28:19;99212.88;;;9.18;49.11
64792;BME280;51226;47.504;19.074;2023-03-14T03:31:22;99218.63;;;9.04;49.95
64792;BME280;51226;47.504;19.074;2023-03-14T03:34:27;99202.81;;;8.97;50.55
64792;BME280;51226;47.504;19.074;2023-03-14T03:37:31;99200.34;;;9.01;49.98
64792;BME280;51226;47.504;19.074;2023-03-14T03:40:34;99200.50;;;9.07;49.97
64792;BME280;51226;47.504;19.074;2023-03-14T03:43:38;99186.41;;;8.99;50.46
64792;BME280;51226;47.504;19.074;2023-03-14T03:46:41;99206.31;;;8.97;50.54
64792;BME280;51226;47.504;19.074;2023-03-14T03:49:44;99206.22;;;8.94;51.17
64792;BME280;51226;47.504;19.074;2023-03-14T03:52:47;99206.22;;;8.94;51.05
64792;BME280;51226;47.504;19.074;2023-03-14T03:55:50;99207.06;;;8.93;51.46
64792;BME280;51226;47.504;19.074;2023-03-14T03:58:52;99202.72;;;8.92;51.52
64792;BME280;51226;47.504;19.074;2023-03-14T04:01:56;99192.22;;;8.89;51.47
64792;BME280;51226;47.504;19.074;2023-03-14T04:04:59;99200.03;;;8.89;51.52
64792;BME280;51226;47.504;19.074;2023-03-14T04:08:02;99203.47;;;8.88;51.53
64792;BME280;51226;47.504;19.074;2023-03-14T04:11:05;99197.34;;;8.86;51.83
64792;BME280;51226;47.504;19.074;2023-03-14T04:14:08;99183.50;;;8.87;51.70
64792;BME280;51226;47.504;19.074;2023-03-14T04:17:13;99182.62;;;8.86;51.70
64792;BME280;51226;47.504;19.074;2023-03-14T04:20:16;99172.31;;;8.89;50.88
64792;BME280;51226;47.504;19.074;2023-03-14T04:23:20;99156.69;;;8.89;50.81
64792;BME280;51226;47.504;19.074;2023-03-14T04:26:24;99173.94;;;8.86;51.35
64792;BME280;51226;47.504;19.074;2023-03-14T04:29:27;99188.78;;;8.90;50.91
64792;BME280;51226;47.504;19.074;2023-03-14T04:32:30;99193.87;;;8.85;51.22
64792;BME280;51226;47.504;19.074;2023-03-14T04:35:34;99183.34;;;8.81;51.27
64792;BME280;51226;47.504;19.074;2023-03-14T04:38:38;99177.41;;;8.86;51.23
64792;BME280;51226;47.504;19.074;2023-03-14T04:41:44;99180.75;;;8.81;51.74
64792;BME280;51226;47.504;19.074;2023-03-14T04:44:47;99176.34;;;8.78;51.44
64792;BME280;51226;47.504;19.074;2023-03-14T04:47:52;99181.66;;;8.83;51.11
64792;BME280;51226;47.504;19.074;2023-03-14T04:50:55;99197.53;;;8.94;50.78
64792;BME280;51226;47.504;19.074;2023-03-14T04:53:59;99185.06;;;8.80;51.87
64792;BME280;51226;47.504;19.074;2023-03-14T04:57:02;99187.78;;;8.85;51.49
64792;BME280;51226;47.504;19.074;2023-03-14T05:00:07;99188.91;;;8.95;51.14
64792;BME280;51226;47.504;19.074;2023-03-14T05:03:12;99185.97;;;8.81;51.89
64792;BME280;51226;47.504;19.074;2023-03-14T05:06:17;99182.50;;;8.82;52.22
64792;BME280;51226;47.504;19.074;2023-03-14T05:09:21;99180.19;;;8.93;51.83
64792;BME280;51226;47.504;19.074;2023-03-14T05:12:24;99182.44;;;8.80;52.88
64792;BME280;51226;47.504;19.074;2023-03-14T05:15:27;99179.69;;;8.73;53.14
64792;BME280;51226;47.504;19.074;2023-03-14T05:18:30;99173.62;;;8.72;53.54
64792;BME280;51226;47.504;19.074;2023-03-14T05:21:33;99166.75;;;8.76;53.28
64792;BME280;51226;47.504;19.074;2023-03-14T05:24:37;99156.47;;;8.80;52.76
64792;BME280;51226;47.504;19.074;2023-03-14T05:27:40;99148.78;;;8.85;52.83
64792;BME280;51226;47.504;19.074;2023-03-14T05:30:43;99152.34;;;8.88;52.64
64792;BME280;51226;47.504;19.074;2023-03-14T05:33:46;99145.63;;;8.98;52.32
64792;BME280;51226;47.504;19.074;2023-03-14T05:36:49;99154.87;;;9.22;51.04
64792;BME280;51226;47.504;19.074;2023-03-14T05:39:53;99155.75;;;9.22;51.22
64792;BME280;51226;47.504;19.074;2023-03-14T05:42:56;99167.84;;;9.20;52.32
64792;BME280;51226;47.504;19.074;2023-03-14T05:46:00;99163.81;;;9.33;51.63
64792;BME280;51226;47.504;19.074;2023-03-14T05:49:03;99149.41;;;9.48;50.26
64792;BME280;51226;47.504;19.074;2023-03-14T05:52:07;99140.66;;;9.44;50.78
64792;BME280;51226;47.504;19.074;2023-03-14T05:55:10;99150.41;;;9.54;50.27
64792;BME280;51226;47.504;19.074;2023-03-14T05:58:13;99154.31;;;9.75;48.83
64792;BME280;51226;47.504;19.074;2023-03-14T06:01:17;99143.06;;;9.76;48.45
64792;BME280;51226;47.504;19.074;2023-03-14T06:04:20;99143.88;;;9.73;48.40
64792;BME280;51226;47.504;19.074;2023-03-14T06:07:24;99137.38;;;9.95;47.56
64792;BME280;51226;47.504;19.074;2023-03-14T06:10:27;99142.75;;;10.03;47.38
64792;BME280;51226;47.504;19.074;2023-03-14T06:13:31;99141.31;;;10.19;46.48
64792;BME280;51226;47.504;19.074;2023-03-14T06:16:34;99147.41;;;10.19;46.33
64792;BME280;51226;47.504;19.074;2023-03-14T06:19:38;99151.16;;;10.34;45.92
64792;BME280;51226;47.504;19.074;2023-03-14T06:22:41;99143.84;;;10.60;45.26
64792;BME280;51226;47.504;19.074;2023-03-14T06:25:45;99144.66;;;10.56;45.25
64792;BME280;51226;47.504;19.074;2023-03-14T06:28:48;99148.37;;;10.72;45.24
64792;BME280;51226;47.504;19.074;2023-03-14T06:31:51;99139.03;;;10.83;44.93
64792;BME280;51226;47.504;19.074;2023-03-14T06:34:54;99152.91;;;10.82;44.66
64792;BME280;51226;47.504;19.074;2023-03-14T06:37:57;99152.84;;;10.79;44.51
64792;BME280;51226;47.504;19.074;2023-03-14T06:41:04;99152.84;;;10.78;44.44
64792;BME280;51226;47.504;19.074;2023-03-14T06:44:07;99151.03;;;10.73;44.80
64792;BME280;51226;47.504;19.074;2023-03-14T06:47:10;99153.59;;;10.72;44.73
64792;BME280;51226;47.504;19.074;2023-03-14T06:50:14;99159.56;;;10.65;45.60
64792;BME280;51226;47.504;19.074;2023-03-14T06:53:17;99163.28;;;10.78;45.22
64792;BME280;51226;47.504;19.074;2023-03-14T06:56:20;99166.12;;;10.93;44.85
64792;BME280;51226;47.504;19.074;2023-03-14T06:59:24;99164.31;;;10.89;44.99
64792;BME280;51226;47.504;19.074;2023-03-14T07:02:27;99154.66;;;10.83;45.14
64792;BME280;51226;47.504;19.074;2023-03-14T07:05:47;99159.19;;;10.93;45.25
64792;BME280;51226;47.504;19.074;2023-03-14T07:08:50;99157.56;;;11.02;45.26
64792;BME280;51226;47.504;19.074;2023-03-14T07:11:54;99166.47;;;11.13;44.87
64792;BME280;51226;47.504;19.074;2023-03-14T07:14:57;99149.00;;;11.10;44.88
64792;BME280;51226;47.504;19.074;2023-03-14T07:18:13;99144.06;;;11.29;44.73
64792;BME280;51226;47.504;19.074;2023-03-14T07:21:16;99150.25;;;11.36;44.47
64792;BME280;51226;47.504;19.074;2023-03-14T07:24:19;99156.38;;;11.36;45.08
64792;BME280;51226;47.504;19.074;2023-03-14T07:27:22;99152.16;;;11.46;44.51
64792;BME280;51226;47.504;19.074;2023-03-14T07:30:25;99154.75;;;11.44;44.48
64792;BME280;51226;47.504;19.074;2023-03-14T07:33:28;99150.34;;;11.40;44.82
64792;BME280;51226;47.504;19.074;2023-03-14T07:36:32;99159.31;;;11.61;44.66
64792;BME280;51226;47.504;19.074;2023-03-14T07:39:34;99137.19;;;11.97;44.00
64792;BME280;51226;47.504;19.074;2023-03-14T07:42:38;99126.97;;;12.17;43.88
64792;BME280;51226;47.504;19.074;2023-03-14T07:45:46;99119.53;;;12.57;42.98
64792;BME280;51226;47.504;19.074;2023-03-14T07:48:53;99118.91;;;12.87;42.49
64792;BME280;51226;47.504;19.074;2023-03-14T07:51:55;99115.63;;;13.11;41.82
64792;BME280;51226;47.504;19.074;2023-03-14T07:54:59;99122.50;;;12.98;42.12
64792;BME280;51226;47.504;19.074;2023-03-14T07:58:01;99114.69;;;13.06;42.07
64792;BME280;51226;47.504;19.074;2023-03-14T08:01:05;99112.25;;;13.29;41.96
64792;BME280;51226;47.504;19.074;2023-03-14T08:04:08;99100.41;;;14.05;40.33
64792;BME280;51226;47.504;19.074;2023-03-14T08:07:11;99094.44;;;15.02;38.64
64792;BME280;51226;47.504;19.074;2023-03-14T08:10:14;99088.09;;;15.82;37.03
64792;BME280;51226;47.504;19.074;2023-03-14T08:13:24;99087.78;;;16.42;35.92
64792;BME280;51226;47.504;19.074;2023-03-14T08:16:28;99073.50;;;16.72;35.74
64792;BME280;51226;47.504;19.074;2023-03-14T08:19:31;99072.34;;;17.07;35.06
64792;BME280;51226;47.504;19.074;2023-03-14T08:22:34;99068.66;;;17.27;34.11
64792;BME280;51226;47.504;19.074;2023-03-14T08:25:37;99058.38;;;16.99;34.60
64792;BME280;51226;47.504;19.074;2023-03-14T08:28:40;99069.66;;;17.15;35.14
64792;BME280;51226;47.504;19.074;2023-03-14T08:31:43;99072.00;;;17.43;34.44
64792;BME280;51226;47.504;19.074;2023-03-14T08:34:47;99057.84;;;18.21;33.01
64792;BME280;51226;47.504;19.074;2023-03-14T08:37:51;99045.22;;;19.44;31.57
64792;BME280;51226;47.504;19.074;2023-03-14T08:40:56;99054.56;;;20.05;30.05
64792;BME280;51226;47.504;19.074;2023-03-14T08:44:00;99047.16;;;19.80;30.74
64792;BME280;51226;47.504;19.074;2023-03-14T08:47:02;99038.38;;;20.18;30.90
64792;BME280;51226;47.504;19.074;2023-03-14T08:50:06;99040.19;;;20.52;29.50
64792;BME280;51226;47.504;19.074;2023-03-14T08:53:10;99034.72;;;19.84;30.39
64792;BME280;51226;47.504;19.074;2023-03-14T08:56:13;99028.66;;;19.35;30.96
64792;BME280;51226;47.504;19.074;2023-03-14T08:59:16;99017.06;;;19.40;30.99
64792;BME280;51226;47.504;19.074;2023-03-14T09:02:20;99012.22;;;19.61;30.68
64792;BME280;51226;47.504;19.074;2023-03-14T09:05:22;99006.00;;;19.65;30.48
64792;BME280;51226;47.504;19.074;2023-03-14T09:08:26;99021.81;;;19.67;30.22
64792;BME280;51226;47.504;19.074;2023-03-14T09:11:29;99015.75;;;20.04;30.47
64792;BME280;51226;47.504;19.074;2023-03-14T09:14:32;99007.97;;;20.35;29.34
64792;BME280;51226;47.504;19.074;2023-03-14T09:17:34;99004.84;;;20.89;28.64
64792;BME280;51226;47.504;19.074;2023-03-14T09:20:39;98992.97;;;20.71;28.60
64792;BME280;51226;47.504;19.074;2023-03-14T09:23:42;98993.72;;;20.77;28.90
64792;BME280;51226;47.504;19.074;2023-03-14T09:26:48;98991.56;;;21.24;28.46
64792;BME280;51226;47.504;19.074;2023-03-14T09:29:50;98995.72;;;21.33;27.91
64792;BME280;51226;47.504;19.074;2023-03-14T09:32:53;98973.22;;;21.48;27.87
64792;BME280;51226;47.504;19.074;2023-03-14T09:35:58;98965.28;;;21.46;27.43
64792;BME280;51226;47.504;19.074;2023-03-14T09:39:02;98954.31;;;21.58;28.83
64792;BME280;51226;47.504;19.074;2023-03-14T09:42:08;98957.31;;;21.46;27.78
64792;BME280;51226;47.504;19.074;2023-03-14T09:45:23;98958.06;;;21.81;28.86
64792;BME280;51226;47.504;19.074;2023-03-14T09:48:30;98952.41;;;22.20;27.10
64792;BME280;51226;47.504;19.074;2023-03-14T09:51:34;98941.94;;;22.15;26.79
64792;BME280;51226;47.504;19.074;2023-03-14T09:55:00;98939.41;;;21.84;27.38
64792;BME280;51226;47.504;19.074;2023-03-14T09:58:13;98927.78;;;21.58;28.27
64792;BME280;51226;47.504;19.074;2023-03-14T10:01:22;98930.12;;;21.69;28.11
64792;BME280;51226;47.504;19.074;2023-03-14T10:04:28;98925.81;;;21.35;28.59
64792;BME280;51226;47.504;19.074;2023-03-14T10:07:33;98902.56;;;20.82;29.52
64792;BME280;51226;47.504;19.074;2023-03-14T10:10:36;98902.59;;;21.43;29.02
64792;BME280;51226;47.504;19.074;2023-03-14T10:13:48;98895.63;;;21.69;28.33
64792;BME280;51226;47.504;19.074;2023-03-14T10:16:51;98874.63;;;22.16;27.90
64792;BME280;51226;47.504;19.074;2023-03-14T10:19:59;98875.78;;;22.61;27.49
64792;BME280;51226;47.504;19.074;2023-03-14T10:26:18;98860.06;;;23.04;26.84
64792;BME280;51226;47.504;19.074;2023-03-14T10:29:21;98847.41;;;23.34;26.53
64792;BME280;51226;47.504;19.074;2023-03-14T10:32:42;98847.00;;;23.43;26.16
64792;BME280;51226;47.504;19.074;2023-03-14T10:36:00;98853.19;;;22.73;26.28
64792;BME280;51226;47.504;19.074;2023-03-14T10:42:29;98857.69;;;21.07;28.50
64792;BME280;51226;47.504;19.074;2023-03-14T10:45:38;98866.25;;;20.86;29.01
64792;BME280;51226;47.504;19.074;2023-03-14T10:48:41;98851.56;;;20.74;28.93
64792;BME280;51226;47.504;19.074;2023-03-14T10:51:45;98842.81;;;20.72;29.12
64792;BME280;51226;47.504;19.074;2023-03-14T10:54:56;98859.97;;;20.90;28.88
64792;BME280;51226;47.504;19.074;2023-03-14T10:57:59;98855.81;;;21.11;28.69
64792;BME280;51226;47.504;19.074;2023-03-14T11:11:31;98830.50;;;21.59;27.87
64792;BME280;51226;47.504;19.074;2023-03-14T11:14:39;98806.50;;;21.63;27.83
64792;BME280;51226;47.504;19.074;2023-03-14T11:24:28;98786.66;;;20.89;28.81
64792;BME280;51226;47.504;19.074;2023-03-14T11:40:35;98766.69;;;21.07;28.96
64792;BME280;51226;47.504;19.074;2023-03-14T11:43:41;98741.91;;;21.08;29.08
64792;BME280;51226;47.504;19.074;2023-03-14T11:46:54;98757.81;;;21.08;29.15
64792;BME280;51226;47.504;19.074;2023-03-14T11:50:03;98766.41;;;20.86;29.34
64792;BME280;51226;47.504;19.074;2023-03-14T11:53:17;98748.09;;;20.79;29.37
64792;BME280;51226;47.504;19.074;2023-03-14T11:56:29;98731.62;;;21.25;29.00
64792;BME280;51226;47.504;19.074;2023-03-14T12:06:21;98729.66;;;20.76;29.57
64792;BME280;51226;47.504;19.074;2023-03-14T12:09:26;98724.34;;;20.76;29.40
64792;BME280;51226;47.504;19.074;2023-03-14T12:12:30;98707.28;;;20.84;29.28
64792;BME280;51226;47.504;19.074;2023-03-14T12:15:38;98718.16;;;20.77;29.04
64792;BME280;51226;47.504;19.074;2023-03-14T12:18:41;98707.13;;;20.90;28.91
64792;BME280;51226;47.504;19.074;2023-03-14T12:21:55;98697.28;;;20.94;28.59
64792;BME280;51226;47.504;19.074;2023-03-14T12:25:06;98710.47;;;20.96;28.81
64792;BME280;51226;47.504;19.074;2023-03-14T12:28:30;98704.84;;;20.78;29.00
64792;BME280;51226;47.504;19.074;2023-03-14T12:31:41;98687.34;;;20.72;29.21
64792;BME280;51226;47.504;19.074;2023-03-14T12:34:44;98694.94;;;20.85;29.18
64792;BME280;51226;47.504;19.074;2023-03-14T12:37:52;98678.53;;;20.72;29.53
64792;BME280;51226;47.504;19.074;2023-03-14T12:47:42;98675.37;;;21.69;28.20
64792;BME280;51226;47.504;19.074;2023-03-14T12:51:02;98671.75;;;21.45;28.64
64792;BME280;51226;47.504;19.074;2023-03-14T12:58:15;98658.87;;;20.49;29.69
64792;BME280;51226;47.504;19.074;2023-03-14T13:01:20;98659.72;;;20.22;30.31
64792;BME280;51226;47.504;19.074;2023-03-14T13:04:44;98659.34;;;20.03;31.09
64792;BME280;51226;47.504;19.074;2023-03-14T13:10:51;98653.72;;;19.84;31.29
64792;BME280;51226;47.504;19.074;2023-03-14T13:13:57;98633.03;;;19.65;31.46
64792;BME280;51226;47.504;19.074;2023-03-14T13:17:01;98644.63;;;19.59;31.52
64792;BME280;51226;47.504;19.074;2023-03-14T13:20:46;98637.81;;;19.51;31.90
64792;BME280;51226;47.504;19.074;2023-03-14T13:24:05;98647.72;;;19.42;31.86
64792;BME280;51226;47.504;19.074;2023-03-14T13:27:17;98640.16;;;19.29;31.84
64792;BME280;51226;47.504;19.074;2023-03-14T13:30:25;98643.00;;;19.21;32.01
64792;BME280;51226;47.504;19.074;2023-03-14T13:33:29;98659.91;;;19.14;32.15
64792;BME280;51226;47.504;19.074;2023-03-14T13:36:33;98664.47;;;19.07;32.37
64792;BME280;51226;47.504;19.074;2023-03-14T13:39:39;98657.44;;;19.06;32.32
64792;BME280;51226;47.504;19.074;2023-03-14T13:42:42;98666.47;;;18.97;32.65
64792;BME280;51226;47.504;19.074;2023-03-14T13:48:52;98665.69;;;18.94;34.79
64792;BME280;51226;47.504;19.074;2023-03-14T13:51:58;98662.25;;;18.90;34.59
64792;BME280;51226;47.504;19.074;2023-03-14T13:55:03;98652.56;;;18.89;34.36
64792;BME280;51226;47.504;19.074;2023-03-14T13:58:18;98657.16;;;18.79;34.47
64792;BME280;51226;47.504;19.074;2023-03-14T14:01:28;98656.25;;;18.83;34.17
64792;BME280;51226;47.504;19.074;2023-03-14T14:04:36;98659.66;;;18.88;33.69
64792;BME280;51226;47.504;19.074;2023-03-14T14:07:40;98658.78;;;18.88;33.50
64792;BME280;51226;47.504;19.074;2023-03-14T14:10:47;98656.72;;;18.99;33.22
64792;BME280;51226;47.504;19.074;2023-03-14T14:13:51;98658.59;;;18.96;33.18
64792;BME280;51226;47.504;19.074;2023-03-14T14:16:54;98662.13;;;18.96;33.08
64792;BME280;51226;47.504;19.074;2023-03-14T14:19:59;98654.97;;;19.00;32.86
64792;BME280;51226;47.504;19.074;2023-03-14T14:23:06;98648.06;;;18.94;32.68
64792;BME280;51226;47.504;19.074;2023-03-14T14:26:15;98644.50;;;18.95;33.08
64792;BME280;51226;47.504;19.074;2023-03-14T14:32:37;98643.16;;;19.15;32.27
64792;BME280;51226;47.504;19.074;2023-03-14T14:35:41;98653.81;;;19.12;32.43
64792;BME280;51226;47.504;19.074;2023-03-14T14:38:49;98639.91;;;19.03;32.66
64792;BME280;51226;47.504;19.074;2023-03-14T14:41:53;98642.50;;;19.06;32.67
64792;BME280;51226;47.504;19.074;2023-03-14T14:44:56;98644.59;;;18.92;33.14
64792;BME280;51226;47.504;19.074;2023-03-14T14:51:05;98646.56;;;18.81;33.39
64792;BME280;51226;47.504;19.074;2023-03-14T14:54:19;98636.94;;;18.80;33.54
64792;BME280;51226;47.504;19.074;2023-03-14T14:57:25;98653.16;;;18.64;50.22
64792;BME280;51226;47.504;19.074;2023-03-14T15:00:31;98640.66;;;17.88;44.56
64792;BME280;51226;47.504;19.074;2023-03-14T15:03:34;98640.53;;;17.48;42.52
64792;BME280;51226;47.504;19.074;2023-03-14T15:06:38;98641.53;;;17.39;40.24
64792;BME280;51226;47.504;19.074;2023-03-14T15:09:41;98637.13;;;17.43;39.90
64792;BME280;51226;47.504;19.074;2023-03-14T15:12:45;98645.81;;;17.48;40.78
64792;BME280;51226;47.504;19.074;2023-03-14T15:15:49;98643.00;;;17.55;38.82
64792;BME280;51226;47.504;19.074;2023-03-14T15:19:01;98650.28;;;17.43;39.80
64792;BME280;51226;47.504;19.074;2023-03-14T15:22:25;98664.16;;;17.52;38.13
64792;BME280;51226;47.504;19.074;2023-03-14T15:25:28;98666.00;;;17.95;36.22
64792;BME280;51226;47.504;19.074;2023-03-14T15:28:51;98660.91;;;17.86;36.67
64792;BME280;51226;47.504;19.074;2023-03-14T15:31:54;98668.09;;;17.78;37.10
64792;BME280;51226;47.504;19.074;2023-03-14T15:34:57;98672.75;;;17.64;36.83
64792;BME280;51226;47.504;19.074;2023-03-14T15:38:00;98676.03;;;17.76;35.70
64792;BME280;51226;47.504;19.074;2023-03-14T15:41:02;98675.41;;;17.62;36.51
64792;BME280;51226;47.504;19.074;2023-03-14T15:44:05;98678.72;;;17.73;35.82
64792;BME280;51226;47.504;19.074;2023-03-14T15:47:10;98683.97;;;17.75;35.44
64792;BME280;51226;47.504;19.074;2023-03-14T15:50:13;98691.34;;;17.57;35.59
64792;BME280;51226;47.504;19.074;2023-03-14T15:53:17;98698.22;;;17.65;35.78
64792;BME280;51226;47.504;19.074;2023-03-14T15:56:20;98725.84;;;17.42;36.77
64792;BME280;51226;47.504;19.074;2023-03-14T15:59:24;98742.56;;;17.41;41.61
64792;BME280;51226;47.504;19.074;2023-03-14T16:02:27;98751.66;;;17.21;45.99
64792;BME280;51226;47.504;19.074;2023-03-14T16:05:31;98743.16;;;17.02;47.67
64792;BME280;51226;47.504;19.074;2023-03-14T16:08:33;98754.78;;;16.89;49.41
64792;BME280;51226;47.504;19.074;2023-03-14T16:11:36;98760.28;;;16.69;50.39
64792;BME280;51226;47.504;19.074;2023-03-14T16:14:39;98754.34;;;16.50;51.91
64792;BME280;51226;47.504;19.074;2023-03-14T16:17:45;98744.91;;;16.32;54.17
64792;BME280;51226;47.504;19.074;2023-03-14T16:20:53;98758.28;;;16.14;55.23
64792;BME280;51226;47.504;19.074;2023-03-14T16:23:56;98754.75;;;16.16;56.06
64792;BME280;51226;47.504;19.074;2023-03-14T16:26:58;98754.09;;;15.97;57.08
64792;BME280;51226;47.504;19.074;2023-03-14T16:30:01;98746.25;;;15.91;57.14
64792;BME280;51226;47.504;19.074;2023-03-14T16:33:04;98748.16;;;15.77;58.16
64792;BME280;51226;47.504;19.074;2023-03-14T16:36:14;98754.47;;;15.54;59.67
64792;BME280;51226;47.504;19.074;2023-03-14T16:39:18;98749.34;;;15.37;60.27
64792;BME280;51226;47.504;19.074;2023-03-14T16:42:22;98759.88;;;15.32;59.77
64792;BME280;51226;47.504;19.074;2023-03-14T16:45:25;98773.97;;;15.22;60.42
64792;BME280;51226;47.504;19.074;2023-03-14T16:48:29;98786.28;;;15.14;60.89
64792;BME280;51226;47.504;19.074;2023-03-14T16:51:32;98793.25;;;15.19;60.55
64792;BME280;51226;47.504;19.074;2023-03-14T16:54:34;98803.87;;;14.98;61.57
64792;BME280;51226;47.504;19.074;2023-03-14T16:57:37;98804.78;;;14.94;61.90
64792;BME280;51226;47.504;19.074;2023-03-14T17:00:40;98817.91;;;14.89;61.84
64792;BME280;51226;47.504;19.074;2023-03-14T17:03:45;98812.69;;;14.83;61.80
64792;BME280;51226;47.504;19.074;2023-03-14T17:06:48;98822.34;;;14.79;61.68
64792;BME280;51226;47.504;19.074;2023-03-14T17:09:51;98822.34;;;14.75;61.91
64792;BME280;51226;47.504;19.074;2023-03-14T17:12:56;98825.03;;;14.61;62.21
64792;BME280;51226;47.504;19.074;2023-03-14T17:16:00;98840.75;;;14.58;62.68
64792;BME280;51226;47.504;19.074;2023-03-14T17:19:04;98845.19;;;14.45;63.23
64792;BME280;51226;47.504;19.074;2023-03-14T17:22:09;98845.19;;;14.31;64.74
64792;BME280;51226;47.504;19.074;2023-03-14T17:25:25;98845.19;;;14.31;65.47
64792;BME280;51226;47.504;19.074;2023-03-14T17:28:28;98854.81;;;14.26;66.18